Time;durP1;ratioP1;P1;durP2;ratioP2;P2;SDS_P1;SDS_P2;PMS_P1;PMS_P2;Temp;Humidity;BMP_temperature;BMP_pressure;BME280_temperature;BME280_humidity;BME280_pressure;Samples;Min_cycle;Max_cycle;Signal;HPM_P1;HPM_P2
2023/08/31 00:01:03;;;;;;;2.70;1.70;;;17.90;99.90;;;;;;5049887;28;20117;-84
2023/08/31 00:03:31;;;;;;;2.65;1.52;;;17.80;99.90;;;;;;5041299;28;20100;-82
2023/08/31 00:06:01;;;;;;;2.03;1.63;;;17.80;99.90;;;;;;5016659;28;20081;-82
2023/08/31 00:08:28;;;;;;;3.70;1.88;;;17.80;99.90;;;;;;5041580;28;20053;-80
2023/08/31 00:11:00;;;;;;;2.70;1.65;;;17.70;99.90;;;;;;5037691;28;20084;-82
2023/08/31 00:13:27;;;;;;;2.90;1.50;;;17.70;99.90;;;;;;5018668;28;20454;-81
2023/08/31 00:15:59;;;;;;;3.40;1.80;;;17.60;99.90;;;;;;5036981;28;20049;-81
2023/08/31 00:18:26;;;;;;;3.42;1.70;;;17.60;99.90;;;;;;5017448;28;20049;-81
2023/08/31 00:20:53;;;;;;;2.70;1.63;;;17.60;99.90;;;;;;5034562;28;20046;-81
2023/08/31 00:23:20;;;;;;;2.67;1.80;;;17.60;99.90;;;;;;5041851;28;20076;-82
2023/08/31 00:25:52;;;;;;;1.63;1.40;;;17.60;99.90;;;;;;5022172;28;20045;-82
2023/08/31 00:28:19;;;;;;;4.28;1.90;;;17.60;99.90;;;;;;5037939;28;20051;-81
2023/08/31 00:30:48;;;;;;;2.85;1.52;;;17.60;99.90;;;;;;5040284;28;20513;-82
2023/08/31 00:33:16;;;;;;;2.60;1.50;;;17.60;99.90;;;;;;5040052;28;20129;-83
2023/08/31 00:35:45;;;;;;;2.58;1.60;;;17.50;99.90;;;;;;5038223;28;20049;-83
2023/08/31 00:38:13;;;;;;;3.25;1.45;;;17.50;99.90;;;;;;5042625;28;20049;-83
2023/08/31 00:40:45;;;;;;;3.10;1.60;;;17.50;99.90;;;;;;5039373;28;20096;-82
2023/08/31 00:43:17;;;;;;;3.38;1.73;;;17.50;99.90;;;;;;5039259;28;20073;-82
2023/08/31 00:45:46;;;;;;;2.30;1.70;;;17.50;99.90;;;;;;5043775;28;20054;-82
2023/08/31 00:48:16;;;;;;;2.70;1.90;;;17.40;99.90;;;;;;5040378;28;20042;-82
2023/08/31 00:50:46;;;;;;;4.93;1.92;;;17.40;99.90;;;;;;5030564;28;20048;-81
2023/08/31 00:53:15;;;;;;;2.60;1.52;;;17.30;99.90;;;;;;5041580;28;20037;-83
2023/08/31 00:55:46;;;;;;;3.25;1.63;;;17.30;99.90;;;;;;5019968;28;20520;-82
2023/08/31 00:58:13;;;;;;;2.33;1.48;;;17.30;99.90;;;;;;5031419;28;20045;-80
2023/08/31 01:01:03;;;;;;;6.15;1.40;;;17.30;99.90;;;;;;5034345;28;20056;-82
2023/08/31 01:03:30;;;;;;;2.38;1.38;;;17.20;99.90;;;;;;5032564;28;20054;-83
2023/08/31 01:06:13;;;;;;;4.78;1.60;;;17.10;99.90;;;;;;5032472;28;20068;-80
2023/08/31 01:08:57;;;;;;;5.22;1.70;;;17.10;99.90;;;;;;5037129;28;20045;-83
2023/08/31 01:11:44;;;;;;;3.78;1.25;;;17.10;99.90;;;;;;5034062;28;20498;-80
2023/08/31 01:14:15;;;;;;;2.45;1.60;;;17.00;99.90;;;;;;5021956;28;20048;-83
2023/08/31 01:16:45;;;;;;;3.35;1.35;;;17.10;99.90;;;;;;5024620;28;20046;-81
2023/08/31 01:19:43;;;;;;;4.45;1.75;;;17.00;99.90;;;;;;5033367;28;20041;-82
2023/08/31 01:22:17;;;;;;;4.65;1.65;;;17.00;99.90;;;;;;5016661;28;20065;-81
2023/08/31 01:24:44;;;;;;;3.30;1.45;;;17.00;99.90;;;;;;5038263;28;20045;-82
2023/08/31 01:27:11;;;;;;;3.50;1.50;;;16.90;99.90;;;;;;5013855;28;20045;-82
2023/08/31 01:29:38;;;;;;;4.63;1.80;;;16.90;99.90;;;;;;5019668;28;20045;-83
2023/08/31 01:32:07;;;;;;;2.08;1.20;;;16.90;99.90;;;;;;5045628;28;20167;-82
2023/08/31 01:34:37;;;;;;;2.53;1.48;;;16.80;99.90;;;;;;5041464;28;20045;-82
2023/08/31 01:37:14;;;;;;;1.83;1.33;;;16.80;99.90;;;;;;5042009;28;20056;-83
2023/08/31 01:39:47;;;;;;;5.18;1.40;;;16.80;99.90;;;;;;5046058;28;20076;-82
2023/08/31 01:42:16;;;;;;;2.05;1.23;;;16.80;99.90;;;;;;5021294;28;20072;-82
2023/08/31 01:44:48;;;;;;;2.97;1.30;;;16.80;99.90;;;;;;5038233;28;20041;-83
2023/08/31 01:47:17;;;;;;;2.97;1.15;;;16.70;99.90;;;;;;5043291;28;20480;-82
2023/08/31 01:49:43;;;;;;;4.28;1.52;;;16.60;99.90;;;;;;5039570;28;20049;-82
2023/08/31 01:52:10;;;;;;;4.22;1.20;;;16.60;99.90;;;;;;5038293;28;20072;-81
2023/08/31 01:54:37;;;;;;;5.68;1.67;;;16.60;99.90;;;;;;5042389;28;20045;-82
2023/08/31 01:57:05;;;;;;;2.42;1.33;;;16.60;99.90;;;;;;5018542;28;20069;-80
2023/08/31 01:59:34;;;;;;;4.47;1.88;;;16.60;99.90;;;;;;5034764;28;20041;-82
2023/08/31 02:02:01;;;;;;;3.40;1.05;;;16.60;99.90;;;;;;5024366;28;20045;-82
2023/08/31 02:04:27;;;;;;;3.40;1.55;;;16.60;99.90;;;;;;5038740;28;20075;-82
2023/08/31 02:06:54;;;;;;;2.72;1.20;;;16.60;99.90;;;;;;5037900;28;20057;-81
2023/08/31 02:09:21;;;;;;;2.65;1.38;;;16.60;99.90;;;;;;5042545;28;20037;-82
2023/08/31 02:11:48;;;;;;;2.47;1.38;;;16.60;99.90;;;;;;5038018;28;20118;-81
2023/08/31 02:14:15;;;;;;;1.92;1.30;;;16.60;99.90;;;;;;5034882;28;20056;-81
2023/08/31 02:16:41;;;;;;;3.33;1.30;;;16.70;99.90;;;;;;5023748;28;20037;-82
2023/08/31 02:19:08;;;;;;;5.38;1.35;;;16.60;99.90;;;;;;5042998;28;20050;-82
2023/08/31 02:21:35;;;;;;;3.42;1.33;;;16.50;99.90;;;;;;5036721;28;20505;-81
2023/08/31 02:24:03;;;;;;;1.88;1.25;;;16.40;99.90;;;;;;5024872;28;20072;-82
2023/08/31 02:26:29;;;;;;;4.20;1.60;;;16.40;99.90;;;;;;5044455;28;20053;-82
2023/08/31 02:28:56;;;;;;;7.43;2.05;;;16.40;99.90;;;;;;5037874;28;20076;-82
2023/08/31 02:31:23;;;;;;;1.75;1.17;;;16.40;99.90;;;;;;5042447;28;20061;-81
2023/08/31 02:33:50;;;;;;;2.38;1.40;;;16.30;99.90;;;;;;5047122;28;20041;-82
2023/08/31 02:36:17;;;;;;;7.55;2.60;;;16.20;99.90;;;;;;5020130;28;20042;-82
2023/08/31 02:38:43;;;;;;;4.22;1.75;;;16.20;99.90;;;;;;5041707;28;20051;-83
2023/08/31 02:41:10;;;;;;;7.65;1.58;;;16.20;99.90;;;;;;5046343;28;20084;-82
2023/08/31 02:43:37;;;;;;;3.80;1.50;;;16.20;99.90;;;;;;5035071;28;20119;-83
2023/08/31 02:46:04;;;;;;;2.88;1.30;;;16.20;99.90;;;;;;5042844;28;20057;-83
2023/08/31 02:48:32;;;;;;;3.28;1.65;;;16.20;99.90;;;;;;5029717;28;20101;-82
2023/08/31 02:51:02;;;;;;;3.10;1.23;;;16.20;99.90;;;;;;5038458;28;20046;-83
2023/08/31 02:53:32;;;;;;;2.95;1.40;;;16.20;99.90;;;;;;5024726;28;20137;-82
2023/08/31 02:55:59;;;;;;;8.20;1.65;;;16.20;99.90;;;;;;5046378;28;20072;-81
2023/08/31 02:58:26;;;;;;;2.40;1.40;;;16.20;99.90;;;;;;5034033;28;20057;-83
2023/08/31 03:00:53;;;;;;;5.25;1.50;;;16.20;99.90;;;;;;5045581;28;20045;-83
2023/08/31 03:03:20;;;;;;;3.38;1.50;;;16.20;99.90;;;;;;5048685;28;20076;-83
2023/08/31 03:05:47;;;;;;;4.15;1.20;;;16.20;99.90;;;;;;5041410;28;20041;-83
2023/08/31 03:08:13;;;;;;;6.95;1.77;;;16.20;99.90;;;;;;5041668;28;20072;-83
2023/08/31 03:10:40;;;;;;;2.00;1.13;;;16.20;99.90;;;;;;5047767;28;20049;-83
2023/08/31 03:13:07;;;;;;;2.22;1.45;;;16.30;99.90;;;;;;5040032;28;20037;-83
2023/08/31 03:15:34;;;;;;;6.57;2.33;;;16.20;99.90;;;;;;5047686;28;20049;-84
2023/08/31 03:18:01;;;;;;;9.18;1.95;;;16.30;99.90;;;;;;5049153;28;20061;-83
2023/08/31 03:20:28;;;;;;;4.53;1.48;;;16.30;99.90;;;;;;5042843;28;20053;-82
2023/08/31 03:22:55;;;;;;;3.47;1.48;;;16.30;99.90;;;;;;5033631;28;20042;-83
2023/08/31 03:25:21;;;;;;;2.85;1.30;;;16.30;99.90;;;;;;5032617;28;20030;-82
2023/08/31 03:27:48;;;;;;;7.75;1.38;;;16.30;99.90;;;;;;5042750;28;20046;-83
2023/08/31 03:30:15;;;;;;;2.53;1.30;;;16.30;99.90;;;;;;5046374;28;20540;-82
2023/08/31 03:32:42;;;;;;;3.85;1.42;;;16.20;99.90;;;;;;5044085;28;20087;-82
2023/08/31 03:35:09;;;;;;;4.22;1.60;;;16.20;99.90;;;;;;5037643;28;20449;-82
2023/08/31 03:37:36;;;;;;;4.38;1.73;;;16.20;99.90;;;;;;5032527;28;20050;-81
2023/08/31 03:40:06;;;;;;;1.88;1.40;;;16.20;99.90;;;;;;5021670;28;20694;-82
2023/08/31 03:42:35;;;;;;;5.38;1.95;;;16.10;99.90;;;;;;5029501;28;20140;-81
2023/08/31 03:45:03;;;;;;;3.53;1.45;;;16.10;99.90;;;;;;5036086;28;20076;-82
2023/08/31 03:47:30;;;;;;;4.30;1.48;;;16.10;99.90;;;;;;5035648;28;20049;-83
2023/08/31 03:49:57;;;;;;;6.18;1.50;;;16.10;99.90;;;;;;5034183;28;20046;-81
2023/08/31 03:52:24;;;;;;;4.57;1.40;;;16.10;99.90;;;;;;5030665;28;20099;-82
2023/08/31 03:54:51;;;;;;;4.32;1.60;;;16.00;99.90;;;;;;5037862;28;20541;-82
2023/08/31 03:57:18;;;;;;;3.28;1.30;;;16.00;99.90;;;;;;5038487;28;20046;-82
2023/08/31 03:59:45;;;;;;;6.65;2.05;;;15.90;99.90;;;;;;5036879;28;20050;-81
2023/08/31 04:02:11;;;;;;;4.15;1.60;;;15.90;99.90;;;;;;5037928;28;20555;-82
2023/08/31 04:04:38;;;;;;;6.60;1.23;;;15.90;99.90;;;;;;5018734;28;20042;-80
2023/08/31 04:07:06;;;;;;;4.85;1.80;;;15.90;99.90;;;;;;5030718;28;20042;-82
2023/08/31 04:09:33;;;;;;;4.30;1.50;;;15.90;99.90;;;;;;5036074;28;20420;-82
2023/08/31 04:11:59;;;;;;;3.90;2.10;;;15.90;99.90;;;;;;5040914;28;20049;-81
2023/08/31 04:14:27;;;;;;;4.47;1.85;;;15.90;99.90;;;;;;5019372;28;20105;-81
2023/08/31 04:16:56;;;;;;;2.80;1.60;;;15.90;99.90;;;;;;5023593;28;20493;-82
2023/08/31 04:19:23;;;;;;;1.20;1.02;;;15.90;99.90;;;;;;5028417;28;20072;-82
2023/08/31 04:21:50;;;;;;;3.78;1.63;;;15.90;99.90;;;;;;5033767;28;20467;-83
2023/08/31 04:24:16;;;;;;;2.22;1.40;;;15.90;99.90;;;;;;5037870;28;20046;-81
2023/08/31 04:26:44;;;;;;;3.58;1.90;;;15.90;99.90;;;;;;5044174;28;20148;-82
2023/08/31 04:29:11;;;;;;;3.42;1.75;;;15.80;99.90;;;;;;5034804;28;20661;-83
2023/08/31 04:31:39;;;;;;;6.30;1.60;;;15.90;99.90;;;;;;5021567;28;20057;-82
2023/08/31 04:34:07;;;;;;;2.08;1.33;;;15.90;99.90;;;;;;5027064;28;20046;-82
2023/08/31 04:36:34;;;;;;;3.25;1.60;;;15.90;99.90;;;;;;5011247;28;20492;-82
2023/08/31 04:39:00;;;;;;;4.07;1.52;;;15.90;99.90;;;;;;5033888;28;20050;-82
2023/08/31 04:41:27;;;;;;;2.70;1.90;;;15.90;99.90;;;;;;5041344;28;20057;-82
2023/08/31 04:43:54;;;;;;;6.30;1.48;;;16.00;99.90;;;;;;5016248;28;20042;-81
2023/08/31 04:46:21;;;;;;;2.55;1.40;;;16.00;99.90;;;;;;5016033;28;20101;-82
2023/08/31 04:48:47;;;;;;;3.60;1.63;;;16.00;99.90;;;;;;5038958;28;20045;-83
2023/08/31 04:51:28;;;;;;;3.55;1.40;;;16.00;99.90;;;;;;5029689;28;20080;-80
2023/08/31 04:53:55;;;;;;;3.28;1.50;;;16.00;99.90;;;;;;5034469;28;20045;-82
2023/08/31 04:56:23;;;;;;;2.70;1.73;;;16.00;99.90;;;;;;5039712;28;20057;-82
2023/08/31 04:58:50;;;;;;;4.15;1.65;;;16.00;99.90;;;;;;5014993;28;20092;-82
2023/08/31 05:01:16;;;;;;;4.32;1.50;;;15.90;99.90;;;;;;5030727;28;20072;-82
2023/08/31 05:03:43;;;;;;;5.53;1.70;;;15.90;99.90;;;;;;5039033;28;20053;-82
2023/08/31 05:06:10;;;;;;;4.38;1.73;;;15.90;99.90;;;;;;5029005;28;20050;-82
2023/08/31 05:08:37;;;;;;;2.25;1.55;;;15.90;99.90;;;;;;5015451;28;20466;-82
2023/08/31 05:11:03;;;;;;;3.58;1.58;;;15.90;99.90;;;;;;5046514;28;20099;-83
2023/08/31 05:13:30;;;;;;;4.18;1.70;;;15.90;99.90;;;;;;5040395;28;20046;-81
2023/08/31 05:15:57;;;;;;;2.83;1.60;;;15.90;99.90;;;;;;5021798;28;20050;-83
2023/08/31 05:18:23;;;;;;;2.85;1.70;;;16.00;99.90;;;;;;5044522;28;20045;-82
2023/08/31 05:20:50;;;;;;;4.03;1.80;;;16.00;99.90;;;;;;5040447;28;20054;-83
2023/08/31 05:23:17;;;;;;;3.15;1.55;;;16.00;99.90;;;;;;5038810;28;20052;-80
2023/08/31 05:25:44;;;;;;;5.32;2.00;;;16.00;99.90;;;;;;5045157;28;20053;-83
2023/08/31 05:28:11;;;;;;;3.45;1.77;;;16.00;99.90;;;;;;5040140;28;20103;-82
2023/08/31 05:30:49;;;;;;;2.92;1.65;;;16.00;99.90;;;;;;5038274;28;20081;-83
2023/08/31 05:33:17;;;;;;;4.53;1.90;;;16.00;99.90;;;;;;5023178;28;20041;-82
2023/08/31 05:35:44;;;;;;;4.28;1.70;;;16.00;99.90;;;;;;5036149;28;20464;-82
2023/08/31 05:38:12;;;;;;;2.50;1.38;;;16.00;99.90;;;;;;5037009;28;20046;-82
2023/08/31 05:40:39;;;;;;;4.40;1.80;;;16.00;99.90;;;;;;5038936;28;20045;-82
2023/08/31 05:43:06;;;;;;;5.05;2.17;;;15.90;99.90;;;;;;5041403;28;20112;-82
2023/08/31 05:45:35;;;;;;;7.50;2.00;;;15.80;99.90;;;;;;5032357;28;20456;-82
2023/08/31 05:48:02;;;;;;;3.10;2.05;;;15.80;99.90;;;;;;5027452;28;20069;-82
2023/08/31 05:50:30;;;;;;;5.85;1.88;;;15.80;99.90;;;;;;5037332;28;20046;-81
2023/08/31 05:52:57;;;;;;;7.40;2.15;;;15.80;99.90;;;;;;5016861;28;20469;-81
2023/08/31 05:55:24;;;;;;;4.70;1.60;;;15.70;99.90;;;;;;5038854;28;20050;-82
2023/08/31 05:57:50;;;;;;;7.28;2.65;;;15.70;99.90;;;;;;5023867;28;20104;-83
2023/08/31 06:00:18;;;;;;;3.38;1.95;;;15.70;99.90;;;;;;5031352;28;20049;-82
2023/08/31 06:02:44;;;;;;;2.25;1.73;;;15.60;99.90;;;;;;5038526;28;20041;-83
2023/08/31 06:05:12;;;;;;;4.80;1.90;;;15.60;99.90;;;;;;5044215;28;20037;-80
2023/08/31 06:07:39;;;;;;;4.25;1.80;;;15.60;99.90;;;;;;5039633;28;20049;-83
2023/08/31 06:10:06;;;;;;;6.03;1.90;;;15.60;99.90;;;;;;5040673;28;20041;-83
2023/08/31 06:12:33;;;;;;;2.92;1.55;;;15.60;99.90;;;;;;5043808;28;20083;-83
2023/08/31 06:15:00;;;;;;;5.57;2.25;;;15.60;99.90;;;;;;5014303;28;20068;-82
2023/08/31 06:17:27;;;;;;;4.50;1.92;;;15.60;99.90;;;;;;5038072;28;20046;-83
2023/08/31 06:19:53;;;;;;;5.15;1.60;;;15.60;99.90;;;;;;5046603;28;20049;-82
2023/08/31 06:22:22;;;;;;;3.80;2.05;;;15.60;99.90;;;;;;5041269;28;20049;-83
2023/08/31 06:24:49;;;;;;;5.05;2.20;;;15.60;99.90;;;;;;5043378;28;20093;-81
2023/08/31 06:27:17;;;;;;;3.13;2.13;;;15.60;99.90;;;;;;5047856;28;20046;-82
2023/08/31 06:29:44;;;;;;;3.85;1.80;;;15.60;99.90;;;;;;5020369;28;20049;-82
2023/08/31 06:32:11;;;;;;;5.70;1.90;;;15.60;99.90;;;;;;5042102;28;20081;-81
2023/08/31 06:34:38;;;;;;;5.68;1.75;;;15.70;99.90;;;;;;5047821;28;20041;-85
2023/08/31 06:37:05;;;;;;;3.72;1.92;;;15.70;99.90;;;;;;5036868;28;20048;-83
2023/08/31 06:39:32;;;;;;;5.05;1.75;;;15.70;99.90;;;;;;5044122;28;20076;-84
2023/08/31 06:41:59;;;;;;;3.47;1.83;;;15.70;99.90;;;;;;5032060;28;20056;-81
2023/08/31 06:44:26;;;;;;;4.60;2.13;;;15.70;99.90;;;;;;5027827;28;20057;-83
2023/08/31 06:46:53;;;;;;;3.35;1.55;;;15.70;99.90;;;;;;5037607;28;20049;-83
2023/08/31 06:49:19;;;;;;;3.00;1.70;;;15.70;99.90;;;;;;5045641;28;20053;-83
2023/08/31 06:51:46;;;;;;;3.75;1.70;;;15.70;99.90;;;;;;5047365;28;20046;-80
2023/08/31 06:54:13;;;;;;;5.13;1.92;;;15.80;99.90;;;;;;5043973;28;20045;-84
2023/08/31 06:56:40;;;;;;;7.05;2.22;;;15.80;99.90;;;;;;5045713;28;20239;-82
2023/08/31 06:59:06;;;;;;;5.95;2.00;;;15.80;99.90;;;;;;5035542;28;20049;-83
2023/08/31 07:01:33;;;;;;;3.92;1.75;;;15.80;99.90;;;;;;5040313;28;20050;-81
2023/08/31 07:04:00;;;;;;;5.88;1.40;;;15.80;99.90;;;;;;5029415;28;20095;-82
2023/08/31 07:06:27;;;;;;;5.43;1.75;;;15.90;99.90;;;;;;5024023;28;20488;-82
2023/08/31 07:08:53;;;;;;;3.53;1.80;;;15.90;99.90;;;;;;5040025;28;20046;-83
2023/08/31 07:11:20;;;;;;;4.47;1.42;;;15.90;99.90;;;;;;5024533;28;20042;-81
2023/08/31 07:13:47;;;;;;;3.55;1.70;;;15.90;99.90;;;;;;5039446;28;20457;-83
2023/08/31 07:16:14;;;;;;;4.45;1.95;;;16.00;99.90;;;;;;5015863;28;20418;-81
2023/08/31 07:18:41;;;;;;;4.80;1.67;;;16.00;99.90;;;;;;5042554;28;20049;-84
2023/08/31 07:21:08;;;;;;;7.20;1.80;;;16.10;99.90;;;;;;5042454;28;20048;-83
2023/08/31 07:23:37;;;;;;;5.13;1.30;;;16.10;99.90;;;;;;5034843;28;20053;-82
2023/08/31 07:26:04;;;;;;;2.22;1.55;;;16.20;99.90;;;;;;5037479;28;20053;-82
2023/08/31 07:28:31;;;;;;;3.70;1.58;;;16.20;99.90;;;;;;5038123;28;20065;-82
2023/08/31 07:31:06;;;;;;;5.40;1.67;;;16.30;99.90;;;;;;5032135;28;20084;-82
2023/08/31 07:33:37;;;;;;;6.13;2.10;;;16.40;99.90;;;;;;5039117;28;20050;-82
2023/08/31 07:36:05;;;;;;;6.78;2.00;;;16.40;99.90;;;;;;5040135;28;20072;-81
2023/08/31 07:38:32;;;;;;;3.97;1.88;;;16.40;99.90;;;;;;5031132;28;20056;-80
2023/08/31 07:40:59;;;;;;;3.47;1.50;;;16.50;99.90;;;;;;5035870;28;20083;-82
2023/08/31 07:43:26;;;;;;;4.00;2.00;;;16.50;99.90;;;;;;5035029;28;20459;-80
2023/08/31 07:45:53;;;;;;;6.53;1.80;;;16.60;99.90;;;;;;5029726;28;20050;-82
2023/08/31 07:48:20;;;;;;;4.55;1.80;;;16.60;99.90;;;;;;5037974;28;20091;-82
2023/08/31 07:50:48;;;;;;;2.70;1.45;;;16.60;99.90;;;;;;5021617;28;20090;-82
2023/08/31 07:53:16;;;;;;;6.55;1.85;;;16.70;99.90;;;;;;5023217;28;20052;-81
2023/08/31 07:55:52;;;;;;;2.08;1.45;;;16.70;99.90;;;;;;5040384;28;20073;-83
2023/08/31 07:58:19;;;;;;;5.57;1.80;;;16.80;99.90;;;;;;5046656;28;20060;-80
2023/08/31 08:00:46;;;;;;;4.55;1.75;;;17.00;99.90;;;;;;5037048;28;20046;-83
2023/08/31 08:03:13;;;;;;;4.40;1.63;;;17.10;99.90;;;;;;5043102;28;20504;-82
2023/08/31 08:05:41;;;;;;;3.65;1.77;;;17.20;99.90;;;;;;5045153;28;20436;-83
2023/08/31 08:08:08;;;;;;;4.85;1.65;;;17.40;99.90;;;;;;5034303;28;20051;-82
2023/08/31 08:10:34;;;;;;;9.18;1.83;;;17.50;99.90;;;;;;5018399;28;20049;-83
2023/08/31 08:13:01;;;;;;;7.80;2.33;;;17.70;99.90;;;;;;5043849;28;20050;-82
2023/08/31 08:15:28;;;;;;;4.90;1.77;;;17.80;99.90;;;;;;5037972;28;20075;-82
2023/08/31 08:17:56;;;;;;;5.30;1.90;;;18.00;99.90;;;;;;5039046;28;20049;-82
2023/08/31 08:20:23;;;;;;;6.43;2.05;;;18.10;99.90;;;;;;5024160;28;20053;-82
2023/08/31 08:22:52;;;;;;;4.95;1.52;;;18.20;99.90;;;;;;5018002;28;20077;-82
2023/08/31 08:25:19;;;;;;;3.08;1.58;;;18.40;99.90;;;;;;5035340;28;20048;-82
2023/08/31 08:27:47;;;;;;;6.55;1.95;;;18.50;99.90;;;;;;5041006;28;20103;-82
2023/08/31 08:30:15;;;;;;;2.95;1.50;;;18.60;99.90;;;;;;5013448;28;20041;-82
2023/08/31 08:32:43;;;;;;;4.43;1.42;;;18.70;99.90;;;;;;5038560;28;20053;-82
2023/08/31 08:35:09;;;;;;;4.15;1.38;;;18.80;99.90;;;;;;5041808;28;20045;-82
2023/08/31 08:37:36;;;;;;;4.35;1.20;;;18.90;99.90;;;;;;5033757;28;20057;-80
2023/08/31 08:40:06;;;;;;;4.68;2.10;;;19.00;99.90;;;;;;5016846;28;20055;-82
2023/08/31 08:42:41;;;;;;;5.22;2.10;;;19.00;99.90;;;;;;5035959;28;20049;-83
2023/08/31 08:45:15;;;;;;;6.82;1.95;;;19.10;99.90;;;;;;5041821;28;20508;-82
2023/08/31 08:47:43;;;;;;;4.07;1.50;;;19.20;99.90;;;;;;5035460;28;20084;-80
2023/08/31 08:50:13;;;;;;;3.15;1.48;;;19.20;99.90;;;;;;5045650;28;20107;-83
2023/08/31 08:52:41;;;;;;;3.65;1.35;;;19.30;99.90;;;;;;5038105;28;20073;-83
2023/08/31 08:55:09;;;;;;;3.40;1.40;;;19.40;99.90;;;;;;5036517;28;20045;-82
2023/08/31 08:57:36;;;;;;;4.30;1.38;;;19.40;99.90;;;;;;5043062;28;20025;-82
2023/08/31 09:00:03;;;;;;;4.43;1.30;;;19.40;99.90;;;;;;5042500;28;20050;-82
2023/08/31 09:02:30;;;;;;;6.40;2.38;;;19.50;99.90;;;;;;5037562;28;20053;-81
2023/08/31 09:04:57;;;;;;;3.92;1.63;;;19.60;99.90;;;;;;5041409;28;20064;-83
2023/08/31 09:07:24;;;;;;;6.15;1.63;;;19.60;99.90;;;;;;5040199;28;20058;-83
2023/08/31 09:09:53;;;;;;;4.13;1.58;;;19.60;99.90;;;;;;5018295;28;20061;-84
2023/08/31 09:12:24;;;;;;;2.35;1.55;;;19.60;99.90;;;;;;5025552;28;20095;-82
2023/08/31 09:15:02;;;;;;;5.20;1.52;;;19.70;99.90;;;;;;5037178;28;20045;-83
2023/08/31 09:17:38;;;;;;;2.05;1.40;;;19.70;99.90;;;;;;5037935;28;20042;-83
2023/08/31 09:20:06;;;;;;;2.30;1.02;;;19.80;99.90;;;;;;5040175;28;20045;-81
2023/08/31 09:22:33;;;;;;;3.17;1.48;;;19.90;99.90;;;;;;5035606;28;20057;-83
2023/08/31 09:25:00;;;;;;;5.80;1.40;;;19.90;99.90;;;;;;5034668;28;20053;-83
2023/08/31 09:27:27;;;;;;;6.05;1.48;;;20.00;99.90;;;;;;5043874;28;20050;-80
2023/08/31 09:29:58;;;;;;;5.72;1.60;;;20.00;99.90;;;;;;5042224;28;20054;-82
2023/08/31 09:32:24;;;;;;;3.28;1.45;;;20.10;99.90;;;;;;5037920;28;20056;-82
2023/08/31 09:34:51;;;;;;;3.65;1.40;;;20.10;99.90;;;;;;5041441;28;20049;-82
2023/08/31 09:37:32;;;;;;;7.68;1.58;;;20.10;99.90;;;;;;5033220;28;20042;-82
2023/08/31 09:40:04;;;;;;;6.20;1.63;;;20.20;99.90;;;;;;5036078;28;20107;-83
2023/08/31 09:42:40;;;;;;;5.57;2.10;;;20.20;99.90;;;;;;5041585;28;20053;-83
2023/08/31 09:45:08;;;;;;;9.30;2.33;;;20.20;99.90;;;;;;5044141;28;20058;-82
2023/08/31 09:47:35;;;;;;;5.07;2.40;;;20.20;99.90;;;;;;5037675;28;20050;-82
2023/08/31 09:50:03;;;;;;;9.25;2.10;;;20.20;99.90;;;;;;5040476;28;20521;-83
2023/08/31 09:52:30;;;;;;;5.72;1.55;;;20.20;99.90;;;;;;5040517;28;20049;-83
2023/08/31 09:54:59;;;;;;;5.82;1.50;;;20.20;99.90;;;;;;5023858;28;20056;-84
2023/08/31 09:57:27;;;;;;;8.75;1.63;;;20.20;99.90;;;;;;5048731;28;20084;-83
2023/08/31 10:00:15;;;;;;;4.22;1.98;;;20.10;99.90;;;;;;5046733;28;20062;-83
2023/08/31 10:02:43;;;;;;;2.88;1.63;;;20.10;99.90;;;;;;5024896;28;20049;-83
2023/08/31 10:05:11;;;;;;;5.72;1.85;;;20.20;99.90;;;;;;5030945;28;20049;-83
2023/08/31 10:07:38;;;;;;;4.13;1.60;;;20.30;99.90;;;;;;5048712;28;20046;-83
2023/08/31 10:10:06;;;;;;;4.30;1.40;;;20.30;99.90;;;;;;5049640;28;20052;-83
2023/08/31 10:12:35;;;;;;;3.83;1.60;;;20.40;99.90;;;;;;5031182;28;20046;-83
2023/08/31 10:15:03;;;;;;;3.38;1.23;;;20.50;99.90;;;;;;5048525;28;20050;-83
2023/08/31 10:17:30;;;;;;;5.28;1.60;;;20.60;99.90;;;;;;5044040;28;20060;-84
2023/08/31 10:19:57;;;;;;;3.70;1.70;;;20.70;99.90;;;;;;5044596;28;20117;-83
2023/08/31 10:22:24;;;;;;;6.25;1.30;;;20.80;99.90;;;;;;5044596;28;20045;-84
2023/08/31 10:24:57;;;;;;;7.93;1.50;;;20.80;99.90;;;;;;5038186;28;20053;-83
2023/08/31 10:27:25;;;;;;;4.70;1.23;;;20.90;99.90;;;;;;5023450;28;20072;-81
2023/08/31 10:29:51;;;;;;;4.25;1.40;;;20.90;99.90;;;;;;5046950;28;20285;-82
2023/08/31 10:32:19;;;;;;;3.47;1.40;;;20.80;99.90;;;;;;5034536;28;20042;-83
2023/08/31 10:35:05;;;;;;;3.88;1.30;;;20.70;99.90;;;;;;5041428;28;20045;-81
2023/08/31 10:37:32;;;;;;;4.60;1.55;;;20.70;99.90;;;;;;5044165;28;20496;-84
2023/08/31 10:40:11;;;;;;;6.43;1.98;;;20.80;99.90;;;;;;5041224;28;20054;-83
2023/08/31 10:42:46;;;;;;;3.28;1.80;;;20.80;99.90;;;;;;5026551;28;20046;-83
2023/08/31 10:45:14;;;;;;;5.57;1.40;;;20.90;99.90;;;;;;5047009;28;20076;-82
2023/08/31 10:47:41;;;;;;;3.47;1.40;;;21.00;99.90;;;;;;5036351;28;20080;-81
2023/08/31 10:50:22;;;;;;;4.30;1.48;;;21.00;99.90;;;;;;5041444;28;20113;-82
2023/08/31 10:52:49;;;;;;;3.63;1.25;;;21.10;99.90;;;;;;5042111;28;20056;-83
2023/08/31 10:55:16;;;;;;;3.13;1.30;;;21.30;99.90;;;;;;5039305;28;20042;-82
2023/08/31 10:57:43;;;;;;;6.80;1.38;;;21.30;99.90;;;;;;5040938;28;20053;-82
2023/08/31 11:00:11;;;;;;;3.17;1.60;;;21.30;99.90;;;;;;5041572;28;20050;-82
2023/08/31 11:02:45;;;;;;;6.65;1.67;;;21.30;99.90;;;;;;5033534;28;20096;-82
2023/08/31 11:05:19;;;;;;;4.05;1.40;;;21.30;99.90;;;;;;5038414;28;20516;-83
2023/08/31 11:07:52;;;;;;;4.50;1.90;;;21.30;99.90;;;;;;5023508;28;20117;-83
2023/08/31 11:10:26;;;;;;;3.95;1.60;;;21.30;99.90;;;;;;5039993;28;20046;-81
2023/08/31 11:12:56;;;;;;;4.60;1.60;;;21.40;99.90;;;;;;5038974;28;20046;-82
2023/08/31 11:15:27;;;;;;;3.33;1.40;;;21.40;99.90;;;;;;5038279;28;20042;-81
2023/08/31 11:17:55;;;;;;;3.78;1.40;;;21.40;99.90;;;;;;5031297;28;20050;-82
2023/08/31 11:20:23;;;;;;;5.85;1.48;;;21.40;99.90;;;;;;5041058;28;20041;-83
2023/08/31 11:22:53;;;;;;;4.25;1.65;;;21.40;99.90;;;;;;5041783;28;20050;-83
2023/08/31 11:25:23;;;;;;;4.43;1.45;;;21.40;99.90;;;;;;5036936;28;20081;-83
2023/08/31 11:28:00;;;;;;;5.43;1.85;;;21.40;99.90;;;;;;5041338;28;20041;-83
2023/08/31 11:30:31;;;;;;;4.80;1.50;;;21.50;99.90;;;;;;5027828;28;20554;-82
2023/08/31 11:33:02;;;;;;;4.63;1.50;;;21.50;99.90;;;;;;5037216;28;20048;-83
2023/08/31 11:35:37;;;;;;;7.55;1.98;;;21.60;99.90;;;;;;5040497;28;20105;-82
2023/08/31 11:38:04;;;;;;;3.53;1.17;;;21.70;99.90;;;;;;5036144;28;20116;-80
2023/08/31 11:40:31;;;;;;;4.57;1.67;;;21.60;99.90;;;;;;5034494;28;20088;-83
2023/08/31 11:43:03;;;;;;;4.63;1.45;;;21.70;99.90;;;;;;5037043;28;20509;-82
2023/08/31 11:45:31;;;;;;;3.83;1.27;;;21.80;99.90;;;;;;5037752;28;20501;-82
2023/08/31 11:47:58;;;;;;;3.58;1.67;;;21.80;99.90;;;;;;5030201;28;20137;-82
2023/08/31 11:50:26;;;;;;;4.25;1.30;;;21.80;99.90;;;;;;5040009;28;20072;-83
2023/08/31 11:52:54;;;;;;;4.32;1.48;;;21.80;99.90;;;;;;5036909;28;20038;-81
2023/08/31 11:55:21;;;;;;;3.03;1.20;;;21.80;99.90;;;;;;5031649;28;20107;-82
2023/08/31 11:57:49;;;;;;;4.03;1.45;;;21.90;99.90;;;;;;5032870;28;20049;-81
2023/08/31 12:00:19;;;;;;;8.50;1.40;;;21.90;99.90;;;;;;5036741;28;20076;-82
2023/08/31 12:02:55;;;;;;;3.30;1.40;;;22.00;99.90;;;;;;5023700;28;20124;-82
2023/08/31 12:05:22;;;;;;;5.18;1.75;;;22.00;99.90;;;;;;5034228;28;20046;-83
2023/08/31 12:07:50;;;;;;;4.43;1.40;;;22.00;99.90;;;;;;5037618;28;20045;-82
2023/08/31 12:10:17;;;;;;;4.13;1.50;;;22.00;99.90;;;;;;5027144;28;20628;-80
2023/08/31 12:12:44;;;;;;;4.15;1.38;;;22.00;99.90;;;;;;5032290;28;20045;-82
2023/08/31 12:15:11;;;;;;;4.10;1.25;;;22.10;99.90;;;;;;5019270;28;20067;-82
2023/08/31 12:17:43;;;;;;;5.05;1.27;;;22.10;99.90;;;;;;5007214;28;20080;-83
2023/08/31 12:20:12;;;;;;;6.15;1.80;;;22.00;99.90;;;;;;5026346;28;20034;-83
2023/08/31 12:22:39;;;;;;;5.97;1.38;;;22.10;99.90;;;;;;5053726;28;20089;-83
2023/08/31 12:25:06;;;;;;;5.43;1.83;;;22.20;99.90;;;;;;5038332;28;20049;-83
2023/08/31 12:27:32;;;;;;;6.53;1.52;;;22.20;99.90;;;;;;5037877;28;20108;-81
2023/08/31 12:29:59;;;;;;;4.63;1.40;;;22.20;99.90;;;;;;5045250;28;20046;-81
2023/08/31 12:32:26;;;;;;;3.58;1.45;;;22.20;99.90;;;;;;5041453;28;20139;-81
2023/08/31 12:34:53;;;;;;;5.10;1.65;;;22.30;99.90;;;;;;5024221;28;20124;-83
2023/08/31 12:37:19;;;;;;;4.68;1.27;;;22.30;99.90;;;;;;5045274;28;20041;-83
2023/08/31 12:39:46;;;;;;;5.18;1.73;;;22.40;99.90;;;;;;5037960;28;20049;-82
2023/08/31 12:42:13;;;;;;;5.25;1.52;;;22.40;99.90;;;;;;5034356;28;20042;-82
2023/08/31 12:44:49;;;;;;;3.92;1.60;;;22.50;99.90;;;;;;5042358;28;20098;-83
2023/08/31 12:47:16;;;;;;;5.32;1.80;;;22.40;99.90;;;;;;5041324;28;20045;-81
2023/08/31 12:49:42;;;;;;;2.97;1.50;;;22.40;99.90;;;;;;5040961;28;20246;-80
2023/08/31 12:52:09;;;;;;;2.38;1.30;;;22.30;99.90;;;;;;5043525;28;20073;-81
2023/08/31 12:54:36;;;;;;;3.33;1.50;;;22.40;99.90;;;;;;5038259;28;20076;-82